Time;durP1;ratioP1;P1;durP2;ratioP2;P2;SDS_P1;SDS_P2;PMS_P1;PMS_P2;Temp;Humidity;BMP_temperature;BMP_pressure;BME280_temperature;BME280_humidity;BME280_pressure;Samples;Min_cycle;Max_cycle;Signal;HPM_P1;HPM_P2
2019/05/13 00:00:52;;;;;;;12.8;10.55;;;;;;;5.98;96.2373;96664.72;;;;
2019/05/13 00:01:53;;;;;;;12.8;10.55;;;;;;;5.98;96.2373;96664.72;;;;
2019/05/13 00:02:54;;;;;;;12.8;10.55;;;;;;;5.98;96.2373;96664.72;;;;
2019/05/13 00:03:55;;;;;;;12.8;10.55;;;;;;;5.98;96.2373;96664.72;;;;
2019/05/13 00:04:56;;;;;;;12.8;10.55;;;;;;;5.98;96.2373;96664.72;;;;
2019/05/13 00:05:57;;;;;;;12.8;10.55;;;;;;;5.98;96.2373;96664.72;;;;
2019/05/13 00:06:58;;;;;;;12.8;10.55;;;;;;;5.98;96.2373;96664.72;;;;
2019/05/13 00:07:59;;;;;;;12.8;10.55;;;;;;;5.98;96.2373;96664.72;;;;
2019/05/13 00:09:00;;;;;;;12.8;10.55;;;;;;;5.98;96.2373;96664.72;;;;
2019/05/13 00:10:03;;;;;;;12.8;10.55;;;;;;;5.98;96.2373;96664.72;;;;
2019/05/13 00:11:04;;;;;;;13.25;10.65;;;;;;;5.98;96.39453;96652.17;;;;
2019/05/13 00:12:05;;;;;;;13.25;10.65;;;;;;;5.98;96.39453;96652.17;;;;
2019/05/13 00:13:06;;;;;;;13.25;10.65;;;;;;;5.98;96.39453;96652.17;;;;
2019/05/13 00:14:07;;;;;;;13.25;10.65;;;;;;;5.98;96.39453;96652.17;;;;
2019/05/13 00:15:08;;;;;;;13.25;10.65;;;;;;;5.98;96.39453;96652.17;;;;
2019/05/13 00:16:09;;;;;;;13.25;10.65;;;;;;;5.98;96.39453;96652.17;;;;
2019/05/13 00:17:11;;;;;;;13.25;10.65;;;;;;;5.98;96.39453;96652.17;;;;
2019/05/13 00:18:12;;;;;;;13.25;10.65;;;;;;;5.98;96.39453;96652.17;;;;
2019/05/13 00:19:13;;;;;;;13.25;10.65;;;;;;;5.98;96.39453;96652.17;;;;
2019/05/13 00:20:14;;;;;;;13.25;10.65;;;;;;;5.98;96.39453;96652.17;;;;
2019/05/13 00:21:15;;;;;;;13.25;10.65;;;;;;;5.98;96.39453;96652.17;;;;
2019/05/13 00:22:16;;;;;;;11.45;10.25;;;;;;;5.92;96.31641;96650.27;;;;
2019/05/13 00:23:17;;;;;;;11.45;10.25;;;;;;;5.92;96.31641;96650.27;;;;
2019/05/13 00:24:18;;;;;;;11.45;10.25;;;;;;;5.92;96.31641;96650.27;;;;
2019/05/13 00:25:19;;;;;;;11.45;10.25;;;;;;;5.92;96.31641;96650.27;;;;
2019/05/13 00:26:20;;;;;;;11.45;10.25;;;;;;;5.92;96.31641;96650.27;;;;
2019/05/13 00:27:21;;;;;;;11.45;10.25;;;;;;;5.92;96.31641;96650.27;;;;
2019/05/13 00:28:22;;;;;;;11.45;10.25;;;;;;;5.92;96.31641;96650.27;;;;
2019/05/13 00:29:23;;;;;;;11.45;10.25;;;;;;;5.92;96.31641;96650.27;;;;
2019/05/13 00:30:24;;;;;;;11.45;10.25;;;;;;;5.92;96.31641;96650.27;;;;
2019/05/13 00:31:25;;;;;;;11.45;10.25;;;;;;;5.92;96.31641;96650.27;;;;
2019/05/13 00:32:26;;;;;;;11.55;10.15;;;;;;;5.93;96.54004;96645.23;;;;
2019/05/13 00:33:27;;;;;;;11.55;10.15;;;;;;;5.93;96.54004;96645.23;;;;
2019/05/13 00:34:28;;;;;;;11.55;10.15;;;;;;;5.93;96.54004;96645.23;;;;
2019/05/13 00:35:30;;;;;;;11.55;10.15;;;;;;;5.93;96.54004;96645.23;;;;
2019/05/13 00:36:31;;;;;;;11.55;10.15;;;;;;;5.93;96.54004;96645.23;;;;
2019/05/13 00:37:32;;;;;;;11.55;10.15;;;;;;;5.93;96.54004;96645.23;;;;
2019/05/13 00:38:33;;;;;;;11.55;10.15;;;;;;;5.93;96.54004;96645.23;;;;
2019/05/13 00:39:34;;;;;;;11.55;10.15;;;;;;;5.93;96.54004;96645.23;;;;
2019/05/13 00:40:35;;;;;;;11.55;10.15;;;;;;;5.93;96.54004;96645.23;;;;
2019/05/13 00:41:36;;;;;;;11.55;10.15;;;;;;;5.93;96.54004;96645.23;;;;
2019/05/13 00:42:37;;;;;;;11.55;10.15;;;;;;;5.93;96.54004;96645.23;;;;
2019/05/13 00:43:38;;;;;;;14;10.7;;;;;;;5.85;96.45996;96647.85;;;;
2019/05/13 00:44:39;;;;;;;14;10.7;;;;;;;5.85;96.45996;96647.85;;;;
2019/05/13 00:45:40;;;;;;;14;10.7;;;;;;;5.85;96.45996;96647.85;;;;
2019/05/13 00:46:42;;;;;;;14;10.7;;;;;;;5.85;96.45996;96647.85;;;;
2019/05/13 00:47:43;;;;;;;14;10.7;;;;;;;5.85;96.45996;96647.85;;;;
2019/05/13 00:48:44;;;;;;;14;10.7;;;;;;;5.85;96.45996;96647.85;;;;
2019/05/13 00:49:45;;;;;;;14;10.7;;;;;;;5.85;96.45996;96647.85;;;;
2019/05/13 00:50:46;;;;;;;14;10.7;;;;;;;5.85;96.45996;96647.85;;;;
2019/05/13 00:51:47;;;;;;;14;10.7;;;;;;;5.85;96.45996;96647.85;;;;
2019/05/13 00:52:48;;;;;;;14;10.7;;;;;;;5.85;96.45996;96647.85;;;;
2019/05/13 00:53:49;;;;;;;19.95;15.45;;;;;;;5.79;96.58398;96647.16;;;;
2019/05/13 00:54:50;;;;;;;19.95;15.45;;;;;;;5.79;96.58398;96647.16;;;;
2019/05/13 00:55:51;;;;;;;19.95;15.45;;;;;;;5.79;96.58398;96647.16;;;;
2019/05/13 00:56:52;;;;;;;19.95;15.45;;;;;;;5.79;96.58398;96647.16;;;;
2019/05/13 00:57:53;;;;;;;19.95;15.45;;;;;;;5.79;96.58398;96647.16;;;;
2019/05/13 00:58:54;;;;;;;19.95;15.45;;;;;;;5.79;96.58398;96647.16;;;;
2019/05/13 00:59:56;;;;;;;19.95;15.45;;;;;;;5.79;96.58398;96647.16;;;;
2019/05/13 01:00:57;;;;;;;19.95;15.45;;;;;;;5.79;96.58398;96647.16;;;;
2019/05/13 01:01:58;;;;;;;19.95;15.45;;;;;;;5.79;96.58398;96647.16;;;;
2019/05/13 01:02:59;;;;;;;19.95;15.45;;;;;;;5.79;96.58398;96647.16;;;;
2019/05/13 01:04:00;;;;;;;15.8;12.55;;;;;;;5.66;96.63867;96643.3;;;;
2019/05/13 01:05:01;;;;;;;15.8;12.55;;;;;;;5.66;96.63867;96643.3;;;;
2019/05/13 01:06:02;;;;;;;15.8;12.55;;;;;;;5.66;96.63867;96643.3;;;;
2019/05/13 01:07:04;;;;;;;15.8;12.55;;;;;;;5.66;96.63867;96643.3;;;;
2019/05/13 01:08:05;;;;;;;15.8;12.55;;;;;;;5.66;96.63867;96643.3;;;;
2019/05/13 01:09:06;;;;;;;15.8;12.55;;;;;;;5.66;96.63867;96643.3;;;;
2019/05/13 01:10:07;;;;;;;15.8;12.55;;;;;;;5.66;96.63867;96643.3;;;;
2019/05/13 01:11:08;;;;;;;15.8;12.55;;;;;;;5.66;96.63867;96643.3;;;;
2019/05/13 01:12:10;;;;;;;15.8;12.55;;;;;;;5.66;96.63867;96643.3;;;;
2019/05/13 01:13:11;;;;;;;15.8;12.55;;;;;;;5.66;96.63867;96643.3;;;;
2019/05/13 01:14:12;;;;;;;15.8;12.55;;;;;;;5.66;96.63867;96643.3;;;;
2019/05/13 01:15:13;;;;;;;15.95;12.5;;;;;;;5.61;96.83887;96635.44;;;;
2019/05/13 01:16:14;;;;;;;15.95;12.5;;;;;;;5.61;96.83887;96635.44;;;;
2019/05/13 01:17:15;;;;;;;15.95;12.5;;;;;;;5.61;96.83887;96635.44;;;;
2019/05/13 01:18:16;;;;;;;15.95;12.5;;;;;;;5.61;96.83887;96635.44;;;;
2019/05/13 01:19:17;;;;;;;15.95;12.5;;;;;;;5.61;96.83887;96635.44;;;;
2019/05/13 01:20:19;;;;;;;15.95;12.5;;;;;;;5.61;96.83887;96635.44;;;;
2019/05/13 01:21:20;;;;;;;15.95;12.5;;;;;;;5.61;96.83887;96635.44;;;;
2019/05/13 01:22:21;;;;;;;15.95;12.5;;;;;;;5.61;96.83887;96635.44;;;;
2019/05/13 01:23:22;;;;;;;15.95;12.5;;;;;;;5.61;96.83887;96635.44;;;;
2019/05/13 01:24:23;;;;;;;15.95;12.5;;;;;;;5.61;96.83887;96635.44;;;;
2019/05/13 01:25:24;;;;;;;17.05;13.15;;;;;;;5.54;96.90723;96628.58;;;;
2019/05/13 01:26:25;;;;;;;17.05;13.15;;;;;;;5.54;96.90723;96628.58;;;;
2019/05/13 01:27:26;;;;;;;17.05;13.15;;;;;;;5.54;96.90723;96628.58;;;;
2019/05/13 01:28:27;;;;;;;17.05;13.15;;;;;;;5.54;96.90723;96628.58;;;;
2019/05/13 01:29:28;;;;;;;17.05;13.15;;;;;;;5.54;96.90723;96628.58;;;;
2019/05/13 01:30:29;;;;;;;17.05;13.15;;;;;;;5.54;96.90723;96628.58;;;;
2019/05/13 01:31:31;;;;;;;17.05;13.15;;;;;;;5.54;96.90723;96628.58;;;;
2019/05/13 01:32:32;;;;;;;17.05;13.15;;;;;;;5.54;96.90723;96628.58;;;;
2019/05/13 01:33:33;;;;;;;17.05;13.15;;;;;;;5.54;96.90723;96628.58;;;;
2019/05/13 01:34:34;;;;;;;17.05;13.15;;;;;;;5.54;96.90723;96628.58;;;;
2019/05/13 01:35:35;;;;;;;17.05;13.15;;;;;;;5.54;96.90723;96628.58;;;;
2019/05/13 01:36:36;;;;;;;16.4;13.3;;;;;;;5.56;97.0459;96621.7;;;;
2019/05/13 01:37:37;;;;;;;16.4;13.3;;;;;;;5.56;97.0459;96621.7;;;;
2019/05/13 01:38:38;;;;;;;16.4;13.3;;;;;;;5.56;97.0459;96621.7;;;;
2019/05/13 01:39:39;;;;;;;16.4;13.3;;;;;;;5.56;97.0459;96621.7;;;;
2019/05/13 01:40:41;;;;;;;16.4;13.3;;;;;;;5.56;97.0459;96621.7;;;;
2019/05/13 01:41:42;;;;;;;16.4;13.3;;;;;;;5.56;97.0459;96621.7;;;;
2019/05/13 01:42:43;;;;;;;16.4;13.3;;;;;;;5.56;97.0459;96621.7;;;;
2019/05/13 01:43:44;;;;;;;16.4;13.3;;;;;;;5.56;97.0459;96621.7;;;;
2019/05/13 01:44:45;;;;;;;16.4;13.3;;;;;;;5.56;97.0459;96621.7;;;;
2019/05/13 01:45:46;;;;;;;16.4;13.3;;;;;;;5.56;97.0459;96621.7;;;;
2019/05/13 01:46:47;;;;;;;18.4;14;;;;;;;5.53;97.09277;96623.4;;;;
2019/05/13 01:47:48;;;;;;;18.4;14;;;;;;;5.53;97.09277;96623.4;;;;
2019/05/13 01:48:50;;;;;;;18.4;14;;;;;;;5.53;97.09277;96623.4;;;;
2019/05/13 01:49:51;;;;;;;18.4;14;;;;;;;5.53;97.09277;96623.4;;;;
2019/05/13 01:50:52;;;;;;;18.4;14;;;;;;;5.53;97.09277;96623.4;;;;
2019/05/13 01:51:53;;;;;;;18.4;14;;;;;;;5.53;97.09277;96623.4;;;;
2019/05/13 01:52:54;;;;;;;18.4;14;;;;;;;5.53;97.09277;96623.4;;;;
2019/05/13 01:53:55;;;;;;;18.4;14;;;;;;;5.53;97.09277;96623.4;;;;
2019/05/13 01:54:56;;;;;;;18.4;14;;;;;;;5.53;97.09277;96623.4;;;;
2019/05/13 01:55:58;;;;;;;18.4;14;;;;;;;5.53;97.09277;96623.4;;;;
2019/05/13 01:56:59;;;;;;;22.9;16.75;;;;;;;5.58;97.23926;96622.38;;;;
2019/05/13 01:58:00;;;;;;;22.9;16.75;;;;;;;5.58;97.23926;96622.38;;;;
2019/05/13 01:59:01;;;;;;;22.9;16.75;;;;;;;5.58;97.23926;96622.38;;;;
2019/05/13 02:00:02;;;;;;;22.9;16.75;;;;;;;5.58;97.23926;96622.38;;;;
2019/05/13 02:01:03;;;;;;;22.9;16.75;;;;;;;5.58;97.23926;96622.38;;;;
2019/05/13 02:02:05;;;;;;;22.9;16.75;;;;;;;5.58;97.23926;96622.38;;;;
2019/05/13 02:03:06;;;;;;;22.9;16.75;;;;;;;5.58;97.23926;96622.38;;;;
2019/05/13 02:04:07;;;;;;;22.9;16.75;;;;;;;5.58;97.23926;96622.38;;;;
2019/05/13 02:05:08;;;;;;;22.9;16.75;;;;;;;5.58;97.23926;96622.38;;;;
2019/05/13 02:06:09;;;;;;;22.9;16.75;;;;;;;5.58;97.23926;96622.38;;;;
2019/05/13 02:07:10;;;;;;;22.9;16.75;;;;;;;5.58;97.23926;96622.38;;;;
2019/05/13 02:08:11;;;;;;;24.24999;17.65;;;;;;;5.57;97.24805;96622.97;;;;
2019/05/13 02:09:13;;;;;;;24.24999;17.65;;;;;;;5.57;97.24805;96622.97;;;;
2019/05/13 02:10:16;;;;;;;24.24999;17.65;;;;;;;5.57;97.24805;96622.97;;;;
2019/05/13 02:11:17;;;;;;;24.24999;17.65;;;;;;;5.57;97.24805;96622.97;;;;
2019/05/13 02:12:18;;;;;;;24.24999;17.65;;;;;;;5.57;97.24805;96622.97;;;;
2019/05/13 02:13:19;;;;;;;24.24999;17.65;;;;;;;5.57;97.24805;96622.97;;;;
2019/05/13 02:14:21;;;;;;;24.24999;17.65;;;;;;;5.57;97.24805;96622.97;;;;
2019/05/13 02:15:22;;;;;;;24.24999;17.65;;;;;;;5.57;97.24805;96622.97;;;;
2019/05/13 02:16:23;;;;;;;24.24999;17.65;;;;;;;5.57;97.24805;96622.97;;;;
2019/05/13 02:17:24;;;;;;;24.24999;17.65;;;;;;;5.57;97.24805;96622.97;;;;
2019/05/13 02:18:25;;;;;;;23.85;17.55;;;;;;;5.61;97.40527;96618.03;;;;
2019/05/13 02:19:27;;;;;;;23.85;17.55;;;;;;;5.61;97.40527;96618.03;;;;
2019/05/13 02:20:28;;;;;;;23.85;17.55;;;;;;;5.61;97.40527;96618.03;;;;
2019/05/13 02:21:29;;;;;;;23.85;17.55;;;;;;;5.61;97.40527;96618.03;;;;
2019/05/13 02:22:30;;;;;;;23.85;17.55;;;;;;;5.61;97.40527;96618.03;;;;
2019/05/13 02:23:31;;;;;;;23.85;17.55;;;;;;;5.61;97.40527;96618.03;;;;
2019/05/13 02:24:32;;;;;;;23.85;17.55;;;;;;;5.61;97.40527;96618.03;;;;
2019/05/13 02:25:34;;;;;;;23.85;17.55;;;;;;;5.61;97.40527;96618.03;;;;
2019/05/13 02:26:35;;;;;;;23.85;17.55;;;;;;;5.61;97.40527;96618.03;;;;
2019/05/13 02:27:36;;;;;;;23.85;17.55;;;;;;;5.61;97.40527;96618.03;;;;
2019/05/13 02:28:37;;;;;;;23.6;17.3;;;;;;;5.6;97.44336;96620.36;;;;
2019/05/13 02:29:38;;;;;;;23.6;17.3;;;;;;;5.6;97.44336;96620.36;;;;
2019/05/13 02:30:39;;;;;;;23.6;17.3;;;;;;;5.6;97.44336;96620.36;;;;
2019/05/13 02:31:40;;;;;;;23.6;17.3;;;;;;;5.6;97.44336;96620.36;;;;
2019/05/13 02:32:41;;;;;;;23.6;17.3;;;;;;;5.6;97.44336;96620.36;;;;
2019/05/13 02:33:42;;;;;;;23.6;17.3;;;;;;;5.6;97.44336;96620.36;;;;
2019/05/13 02:34:43;;;;;;;23.6;17.3;;;;;;;5.6;97.44336;96620.36;;;;
2019/05/13 02:35:44;;;;;;;23.6;17.3;;;;;;;5.6;97.44336;96620.36;;;;
2019/05/13 02:36:46;;;;;;;23.6;17.3;;;;;;;5.6;97.44336;96620.36;;;;
2019/05/13 02:37:47;;;;;;;23.6;17.3;;;;;;;5.6;97.44336;96620.36;;;;
2019/05/13 02:38:48;;;;;;;23.6;17.3;;;;;;;5.6;97.44336;96620.36;;;;
2019/05/13 02:39:49;;;;;;;23.1;17.1;;;;;;;5.66;97.55273;96608.54;;;;
2019/05/13 02:40:50;;;;;;;23.1;17.1;;;;;;;5.66;97.55273;96608.54;;;;
2019/05/13 02:41:51;;;;;;;23.1;17.1;;;;;;;5.66;97.55273;96608.54;;;;
2019/05/13 02:42:52;;;;;;;23.1;17.1;;;;;;;5.66;97.55273;96608.54;;;;
2019/05/13 02:43:54;;;;;;;23.1;17.1;;;;;;;5.66;97.55273;96608.54;;;;
2019/05/13 02:44:55;;;;;;;23.1;17.1;;;;;;;5.66;97.55273;96608.54;;;;
2019/05/13 02:45:56;;;;;;;23.1;17.1;;;;;;;5.66;97.55273;96608.54;;;;
2019/05/13 02:46:57;;;;;;;23.1;17.1;;;;;;;5.66;97.55273;96608.54;;;;
2019/05/13 02:47:58;;;;;;;23.1;17.1;;;;;;;5.66;97.55273;96608.54;;;;
2019/05/13 02:48:59;;;;;;;23.1;17.1;;;;;;;5.66;97.55273;96608.54;;;;
2019/05/13 02:50:00;;;;;;;22.45;16.65;;;;;;;5.65;97.55078;96614.4;;;;
2019/05/13 02:51:02;;;;;;;22.45;16.65;;;;;;;5.65;97.55078;96614.4;;;;
2019/05/13 02:52:03;;;;;;;22.45;16.65;;;;;;;5.65;97.55078;96614.4;;;;
2019/05/13 02:53:04;;;;;;;22.45;16.65;;;;;;;5.65;97.55078;96614.4;;;;
2019/05/13 02:54:05;;;;;;;22.45;16.65;;;;;;;5.65;97.55078;96614.4;;;;
2019/05/13 02:55:06;;;;;;;22.45;16.65;;;;;;;5.65;97.55078;96614.4;;;;
2019/05/13 02:56:07;;;;;;;22.45;16.65;;;;;;;5.65;97.55078;96614.4;;;;
2019/05/13 02:57:08;;;;;;;22.45;16.65;;;;;;;5.65;97.55078;96614.4;;;;
2019/05/13 02:58:09;;;;;;;22.45;16.65;;;;;;;5.65;97.55078;96614.4;;;;
2019/05/13 02:59:10;;;;;;;22.45;16.65;;;;;;;5.65;97.55078;96614.4;;;;
2019/05/13 03:00:12;;;;;;;22.45;16.65;;;;;;;5.65;97.55078;96614.4;;;;
2019/05/13 03:01:13;;;;;;;23.5;16.85;;;;;;;5.69;97.67676;96601.42;;;;
2019/05/13 03:02:14;;;;;;;23.5;16.85;;;;;;;5.69;97.67676;96601.42;;;;
2019/05/13 03:03:15;;;;;;;23.5;16.85;;;;;;;5.69;97.67676;96601.42;;;;
2019/05/13 03:04:16;;;;;;;23.5;16.85;;;;;;;5.69;97.67676;96601.42;;;;
2019/05/13 03:05:17;;;;;;;23.5;16.85;;;;;;;5.69;97.67676;96601.42;;;;
2019/05/13 03:06:18;;;;;;;23.5;16.85;;;;;;;5.69;97.67676;96601.42;;;;
2019/05/13 03:07:19;;;;;;;23.5;16.85;;;;;;;5.69;97.67676;96601.42;;;;
2019/05/13 03:08:20;;;;;;;23.5;16.85;;;;;;;5.69;97.67676;96601.42;;;;
2019/05/13 03:09:21;;;;;;;23.5;16.85;;;;;;;5.69;97.67676;96601.42;;;;
2019/05/13 03:10:22;;;;;;;23.5;16.85;;;;;;;5.69;97.67676;96601.42;;;;
2019/05/13 03:11:23;;;;;;;21.85;17;;;;;;;5.69;97.72754;96605.02;;;;
2019/05/13 03:12:24;;;;;;;21.85;17;;;;;;;5.69;97.72754;96605.02;;;;
2019/05/13 03:13:25;;;;;;;21.85;17;;;;;;;5.69;97.72754;96605.02;;;;
2019/05/13 03:14:26;;;;;;;21.85;17;;;;;;;5.69;97.72754;96605.02;;;;
2019/05/13 03:15:37;;;;;;;21.85;17;;;;;;;5.69;97.72754;96605.02;;;;
2019/05/13 03:16:45;;;;;;;21.85;17;;;;;;;5.69;97.72754;96605.02;;;;
2019/05/13 03:18:04;;;;;;;21.85;17;;;;;;;5.69;97.72754;96605.02;;;;
2019/05/13 03:19:05;;;;;;;21.85;17;;;;;;;5.69;97.72754;96605.02;;;;
2019/05/13 03:20:06;;;;;;;21.85;17;;;;;;;5.69;97.72754;96605.02;;;;
2019/05/13 03:21:07;;;;;;;21.85;17;;;;;;;5.69;97.72754;96605.02;;;;
2019/05/13 03:22:08;;;;;;;19.6;15.5;;;;;;;5.77;97.87207;96621.46;;;;
2019/05/13 03:23:09;;;;;;;19.6;15.5;;;;;;;5.77;97.87207;96621.46;;;;
2019/05/13 03:24:10;;;;;;;19.6;15.5;;;;;;;5.77;97.87207;96621.46;;;;
2019/05/13 03:25:11;;;;;;;19.6;15.5;;;;;;;5.77;97.87207;96621.46;;;;
2019/05/13 03:26:12;;;;;;;19.6;15.5;;;;;;;5.77;97.87207;96621.46;;;;
2019/05/13 03:27:13;;;;;;;19.6;15.5;;;;;;;5.77;97.87207;96621.46;;;;
2019/05/13 03:28:14;;;;;;;19.6;15.5;;;;;;;5.77;97.87207;96621.46;;;;
2019/05/13 03:29:15;;;;;;;19.6;15.5;;;;;;;5.77;97.87207;96621.46;;;;
2019/05/13 03:30:17;;;;;;;19.6;15.5;;;;;;;5.77;97.87207;96621.46;;;;
2019/05/13 03:31:18;;;;;;;19.6;15.5;;;;;;;5.77;97.87207;96621.46;;;;
2019/05/13 03:32:19;;;;;;;15.75;13.55;;;;;;;5.79;97.77148;96626.25;;;;
2019/05/13 03:33:20;;;;;;;15.75;13.55;;;;;;;5.79;97.77148;96626.25;;;;
2019/05/13 03:34:21;;;;;;;15.75;13.55;;;;;;;5.79;97.77148;96626.25;;;;
2019/05/13 03:35:22;;;;;;;15.75;13.55;;;;;;;5.79;97.77148;96626.25;;;;
2019/05/13 03:36:23;;;;;;;15.75;13.55;;;;;;;5.79;97.77148;96626.25;;;;
2019/05/13 03:37:24;;;;;;;15.75;13.55;;;;;;;5.79;97.77148;96626.25;;;;
2019/05/13 03:38:25;;;;;;;15.75;13.55;;;;;;;5.79;97.77148;96626.25;;;;
2019/05/13 03:39:26;;;;;;;15.75;13.55;;;;;;;5.79;97.77148;96626.25;;;;
2019/05/13 03:40:27;;;;;;;15.75;13.55;;;;;;;5.79;97.77148;96626.25;;;;
2019/05/13 03:41:29;;;;;;;15.75;13.55;;;;;;;5.79;97.77148;96626.25;;;;
2019/05/13 03:42:30;;;;;;;15.75;13.55;;;;;;;5.79;97.77148;96626.25;;;;
2019/05/13 03:43:31;;;;;;;15.75;13.55;;;;;;;5.79;97.77148;96626.25;;;;
2019/05/13 03:44:32;;;;;;;15.75;13.55;;;;;;;5.79;97.77148;96626.25;;;;
2019/05/13 03:45:33;;;;;;;15.75;13.55;;;;;;;5.79;97.77148;96626.25;;;;
2019/05/13 03:46:34;;;;;;;15.75;13.55;;;;;;;5.79;97.77148;96626.25;;;;
2019/05/13 03:47:35;;;;;;;15.75;13.55;;;;;;;5.79;97.77148;96626.25;;;;
2019/05/13 03:48:36;;;;;;;15.75;13.55;;;;;;;5.79;97.77148;96626.25;;;;
2019/05/13 03:49:37;;;;;;;15.75;13.55;;;;;;;5.79;97.77148;96626.25;;;;
2019/05/13 03:50:40;;;;;;;15.75;13.55;;;;;;;5.79;97.77148;96626.25;;;;
2019/05/13 03:51:41;;;;;;;15.75;13.55;;;;;;;5.79;97.77148;96626.25;;;;
2019/05/13 03:52:42;;;;;;;15.75;13.55;;;;;;;5.79;97.77148;96626.25;;;;
2019/05/13 03:53:43;;;;;;;18.15;13.35;;;;;;;5.77;97.80957;96637.64;;;;
2019/05/13 03:54:44;;;;;;;18.15;13.35;;;;;;;5.77;97.80957;96637.64;;;;
2019/05/13 03:55:45;;;;;;;18.15;13.35;;;;;;;5.77;97.80957;96637.64;;;;
2019/05/13 03:56:47;;;;;;;18.15;13.35;;;;;;;5.77;97.80957;96637.64;;;;
2019/05/13 03:57:48;;;;;;;18.15;13.35;;;;;;;5.77;97.80957;96637.64;;;;
2019/05/13 03:58:49;;;;;;;18.15;13.35;;;;;;;5.77;97.80957;96637.64;;;;
2019/05/13 03:59:50;;;;;;;18.15;13.35;;;;;;;5.77;97.80957;96637.64;;;;
2019/05/13 04:00:51;;;;;;;18.15;13.35;;;;;;;5.77;97.80957;96637.64;;;;
2019/05/13 04:01:52;;;;;;;18.15;13.35;;;;;;;5.77;97.80957;96637.64;;;;
2019/05/13 04:02:53;;;;;;;18.15;13.35;;;;;;;5.77;97.80957;96637.64;;;;
2019/05/13 04:03:54;;;;;;;18.15;13.35;;;;;;;5.77;97.80957;96637.64;;;;
2019/05/13 04:04:55;;;;;;;15.65;13.45;;;;;;;5.8;97.91016;96649.34;;;;
2019/05/13 04:05:56;;;;;;;15.65;13.45;;;;;;;5.8;97.91016;96649.34;;;;
2019/05/13 04:06:57;;;;;;;15.65;13.45;;;;;;;5.8;97.91016;96649.34;;;;
2019/05/13 04:07:58;;;;;;;15.65;13.45;;;;;;;5.8;97.91016;96649.34;;;;
2019/05/13 04:08:59;;;;;;;15.65;13.45;;;;;;;5.8;97.91016;96649.34;;;;
2019/05/13 04:10:00;;;;;;;15.65;13.45;;;;;;;5.8;97.91016;96649.34;;;;
2019/05/13 04:11:02;;;;;;;15.65;13.45;;;;;;;5.8;97.91016;96649.34;;;;
2019/05/13 04:12:03;;;;;;;15.65;13.45;;;;;;;5.8;97.91016;96649.34;;;;
2019/05/13 04:13:04;;;;;;;15.65;13.45;;;;;;;5.8;97.91016;96649.34;;;;
2019/05/13 04:14:05;;;;;;;15.65;13.45;;;;;;;5.8;97.91016;96649.34;;;;
2019/05/13 04:15:06;;;;;;;16.95;13.55;;;;;;;5.8;97.85742;96661.83;;;;
2019/05/13 04:16:07;;;;;;;16.95;13.55;;;;;;;5.8;97.85742;96661.83;;;;
2019/05/13 04:17:08;;;;;;;16.95;13.55;;;;;;;5.8;97.85742;96661.83;;;;
2019/05/13 04:18:09;;;;;;;16.95;13.55;;;;;;;5.8;97.85742;96661.83;;;;
2019/05/13 04:19:10;;;;;;;16.95;13.55;;;;;;;5.8;97.85742;96661.83;;;;
2019/05/13 04:20:12;;;;;;;16.95;13.55;;;;;;;5.8;97.85742;96661.83;;;;
2019/05/13 04:21:13;;;;;;;16.95;13.55;;;;;;;5.8;97.85742;96661.83;;;;
2019/05/13 04:22:14;;;;;;;16.95;13.55;;;;;;;5.8;97.85742;96661.83;;;;
2019/05/13 04:23:15;;;;;;;16.95;13.55;;;;;;;5.8;97.85742;96661.83;;;;
2019/05/13 04:24:16;;;;;;;16.95;13.55;;;;;;;5.8;97.85742;96661.83;;;;
2019/05/13 04:25:17;;;;;;;17.2;13.35;;;;;;;5.9;97.93359;96654.86;;;;
2019/05/13 04:26:18;;;;;;;17.2;13.35;;;;;;;5.9;97.93359;96654.86;;;;
2019/05/13 04:27:19;;;;;;;17.2;13.35;;;;;;;5.9;97.93359;96654.86;;;;
2019/05/13 04:28:20;;;;;;;17.2;13.35;;;;;;;5.9;97.93359;96654.86;;;;
2019/05/13 04:29:21;;;;;;;17.2;13.35;;;;;;;5.9;97.93359;96654.86;;;;
2019/05/13 04:30:22;;;;;;;17.2;13.35;;;;;;;5.9;97.93359;96654.86;;;;
2019/05/13 04:31:23;;;;;;;17.2;13.35;;;;;;;5.9;97.93359;96654.86;;;;
2019/05/13 04:32:25;;;;;;;17.2;13.35;;;;;;;5.9;97.93359;96654.86;;;;
2019/05/13 04:33:26;;;;;;;17.2;13.35;;;;;;;5.9;97.93359;96654.86;;;;
2019/05/13 04:34:27;;;;;;;17.2;13.35;;;;;;;5.9;97.93359;96654.86;;;;
2019/05/13 04:35:28;;;;;;;17.2;13.35;;;;;;;5.9;97.93359;96654.86;;;;
2019/05/13 04:36:29;;;;;;;16.35;13.85;;;;;;;5.99;97.79297;96671.35;;;;
2019/05/13 04:37:30;;;;;;;16.35;13.85;;;;;;;5.99;97.79297;96671.35;;;;
2019/05/13 04:38:31;;;;;;;16.35;13.85;;;;;;;5.99;97.79297;96671.35;;;;
2019/05/13 04:39:32;;;;;;;16.35;13.85;;;;;;;5.99;97.79297;96671.35;;;;
2019/05/13 04:40:33;;;;;;;16.35;13.85;;;;;;;5.99;97.79297;96671.35;;;;
2019/05/13 04:41:34;;;;;;;16.35;13.85;;;;;;;5.99;97.79297;96671.35;;;;
2019/05/13 04:42:35;;;;;;;16.35;13.85;;;;;;;5.99;97.79297;96671.35;;;;
2019/05/13 04:43:36;;;;;;;16.35;13.85;;;;;;;5.99;97.79297;96671.35;;;;
2019/05/13 04:44:37;;;;;;;16.35;13.85;;;;;;;5.99;97.79297;96671.35;;;;
2019/05/13 04:45:38;;;;;;;16.35;13.85;;;;;;;5.99;97.79297;96671.35;;;;
2019/05/13 04:46:39;;;;;;;18.65;14.5;;;;;;;6.24;97.90527;96668.36;;;;
2019/05/13 04:47:40;;;;;;;18.65;14.5;;;;;;;6.24;97.90527;96668.36;;;;
2019/05/13 04:48:41;;;;;;;18.65;14.5;;;;;;;6.24;97.90527;96668.36;;;;
2019/05/13 04:49:42;;;;;;;18.65;14.5;;;;;;;6.24;97.90527;96668.36;;;;
2019/05/13 04:50:43;;;;;;;18.65;14.5;;;;;;;6.24;97.90527;96668.36;;;;
2019/05/13 04:51:45;;;;;;;18.65;14.5;;;;;;;6.24;97.90527;96668.36;;;;
2019/05/13 04:52:46;;;;;;;18.65;14.5;;;;;;;6.24;97.90527;96668.36;;;;
2019/05/13 04:53:47;;;;;;;18.65;14.5;;;;;;;6.24;97.90527;96668.36;;;;
2019/05/13 04:54:48;;;;;;;18.65;14.5;;;;;;;6.24;97.90527;96668.36;;;;
2019/05/13 04:55:49;;;;;;;18.65;14.5;;;;;;;6.24;97.90527;96668.36;;;;
2019/05/13 04:56:50;;;;;;;18.65;14.5;;;;;;;6.24;97.90527;96668.36;;;;
2019/05/13 04:57:51;;;;;;;15.25;12.6;;;;;;;6.53;97.7793;96674.83;;;;
2019/05/13 04:58:52;;;;;;;15.25;12.6;;;;;;;6.53;97.7793;96674.83;;;;
2019/05/13 04:59:53;;;;;;;15.25;12.6;;;;;;;6.53;97.7793;96674.83;;;;
2019/05/13 05:00:54;;;;;;;15.25;12.6;;;;;;;6.53;97.7793;96674.83;;;;
2019/05/13 05:02:10;;;;;;;15.25;12.6;;;;;;;6.53;97.7793;96674.83;;;;
2019/05/13 05:04:23;;;;;;;15.25;12.6;;;;;;;6.53;97.7793;96674.83;;;;
2019/05/13 05:05:45;;;;;;;15.25;12.6;;;;;;;6.53;97.7793;96674.83;;;;
2019/05/13 05:07:24;;;;;;;15.25;12.6;;;;;;;6.53;97.7793;96674.83;;;;
2019/05/13 05:08:37;;;;;;;13.3;11.9;;;;;;;6.91;97.62402;96686.91;;;;
2019/05/13 05:10:04;;;;;;;13.3;11.9;;;;;;;6.91;97.62402;96686.91;;;;
2019/05/13 05:11:14;;;;;;;13.3;11.9;;;;;;;6.91;97.62402;96686.91;;;;
2019/05/13 05:13:55;;;;;;;13.3;11.9;;;;;;;6.91;97.62402;96686.91;;;;
2019/05/13 05:15:14;;;;;;;13.3;11.9;;;;;;;6.91;97.62402;96686.91;;;;
2019/05/13 05:16:35;;;;;;;13.3;11.9;;;;;;;6.91;97.62402;96686.91;;;;
2019/05/13 05:17:51;;;;;;;13.3;11.9;;;;;;;6.91;97.62402;96686.91;;;;
2019/05/13 05:19:26;;;;;;;13.95;12.15;;;;;;;7.35;97.3125;96686.99;;;;
2019/05/13 05:21:11;;;;;;;13.95;12.15;;;;;;;7.35;97.3125;96686.99;;;;
2019/05/13 05:22:16;;;;;;;13.95;12.15;;;;;;;7.35;97.3125;96686.99;;;;
2019/05/13 05:23:38;;;;;;;13.95;12.15;;;;;;;7.35;97.3125;96686.99;;;;
2019/05/13 05:25:06;;;;;;;13.95;12.15;;;;;;;7.35;97.3125;96686.99;;;;
2019/05/13 05:26:33;;;;;;;13.95;12.15;;;;;;;7.35;97.3125;96686.99;;;;
2019/05/13 05:32:00;;;;;;;15.05;12.3;;;;;;;8.03;96.78516;96686.35;;;;
2019/05/13 05:33:15;;;;;;;15.05;12.3;;;;;;;8.03;96.78516;96686.35;;;;
2019/05/13 05:34:34;;;;;;;15.05;12.3;;;;;;;8.03;96.78516;96686.35;;;;
2019/05/13 05:35:51;;;;;;;15.05;12.3;;;;;;;8.03;96.78516;96686.35;;;;
2019/05/13 05:37:21;;;;;;;15.05;12.3;;;;;;;8.03;96.78516;96686.35;;;;
2019/05/13 05:42:17;;;;;;;13.35;10.3;;;;;;;8.61;96.06934;96680.51;;;;
2019/05/13 05:43:18;;;;;;;13.35;10.3;;;;;;;8.61;96.06934;96680.51;;;;
2019/05/13 05:44:19;;;;;;;13.35;10.3;;;;;;;8.61;96.06934;96680.51;;;;
2019/05/13 05:45:21;;;;;;;13.35;10.3;;;;;;;8.61;96.06934;96680.51;;;;
2019/05/13 05:46:22;;;;;;;13.35;10.3;;;;;;;8.61;96.06934;96680.51;;;;
2019/05/13 05:47:23;;;;;;;13.35;10.3;;;;;;;8.61;96.06934;96680.51;;;;
2019/05/13 05:48:24;;;;;;;13.35;10.3;;;;;;;8.61;96.06934;96680.51;;;;
2019/05/13 05:49:25;;;;;;;13.35;10.3;;;;;;;8.61;96.06934;96680.51;;;;
2019/05/13 05:50:26;;;;;;;13.95;11.2;;;;;;;9.1;95.4668;96695.43;;;;
2019/05/13 05:51:27;;;;;;;13.95;11.2;;;;;;;9.1;95.4668;96695.43;;;;
2019/05/13 05:52:28;;;;;;;13.95;11.2;;;;;;;9.1;95.4668;96695.43;;;;
2019/05/13 05:53:29;;;;;;;13.95;11.2;;;;;;;9.1;95.4668;96695.43;;;;
2019/05/13 05:54:30;;;;;;;13.95;11.2;;;;;;;9.1;95.4668;96695.43;;;;
2019/05/13 05:55:32;;;;;;;13.95;11.2;;;;;;;9.1;95.4668;96695.43;;;;
2019/05/13 05:56:34;;;;;;;13.95;11.2;;;;;;;9.1;95.4668;96695.43;;;;
2019/05/13 05:57:35;;;;;;;13.95;11.2;;;;;;;9.1;95.4668;96695.43;;;;
2019/05/13 05:58:39;;;;;;;13.95;11.2;;;;;;;9.1;95.4668;96695.43;;;;
2019/05/13 05:59:40;;;;;;;13.95;11.2;;;;;;;9.1;95.4668;96695.43;;;;
2019/05/13 06:00:41;;;;;;;13.95;11.2;;;;;;;9.1;95.4668;96695.43;;;;
2019/05/13 06:01:43;;;;;;;14;12.3;;;;;;;9.47;94.97461;96692.88;;;;
2019/05/13 06:02:44;;;;;;;14;12.3;;;;;;;9.47;94.97461;96692.88;;;;
2019/05/13 06:03:45;;;;;;;14;12.3;;;;;;;9.47;94.97461;96692.88;;;;
2019/05/13 06:04:46;;;;;;;14;12.3;;;;;;;9.47;94.97461;96692.88;;;;
2019/05/13 06:05:47;;;;;;;14;12.3;;;;;;;9.47;94.97461;96692.88;;;;